createdAt,value
2022-08-03T00:00:41.196Z,96.88
2022-08-03T00:03:10.150Z,96.68
2022-08-03T00:05:38.923Z,96.56
2022-08-03T00:08:07.665Z,96.41
2022-08-03T00:10:36.403Z,96.36
2022-08-03T00:13:05.395Z,96.24
2022-08-03T00:15:34.204Z,95.85
2022-08-03T00:18:03.186Z,96.30
2022-08-03T00:20:31.994Z,95.94
2022-08-03T00:23:00.743Z,96.08
2022-08-03T00:25:29.470Z,96.14
2022-08-03T00:27:58.170Z,96.19
2022-08-03T00:30:30.900Z,96.35
2022-08-03T00:33:00.779Z,96.39
2022-08-03T00:35:49.259Z,96.78
2022-08-03T00:38:20.540Z,96.51
2022-08-03T00:40:49.325Z,96.63
2022-08-03T00:43:18.513Z,96.67
2022-08-03T00:45:47.255Z,96.83
2022-08-03T00:48:19.814Z,96.73
2022-08-03T00:51:02.120Z,96.51
2022-08-03T00:53:31.835Z,96.38
2022-08-03T00:56:00.755Z,96.39
2022-08-03T00:58:29.713Z,96.43
2022-08-03T01:00:59.746Z,96.04
2022-08-03T01:03:28.863Z,95.99
2022-08-03T01:06:08.847Z,96.29
2022-08-03T01:09:01.447Z,96.77
2022-08-03T01:11:37.279Z,97.05
2022-08-03T01:14:45.000Z,97.05
2022-08-03T01:17:29.927Z,97.21
2022-08-03T01:20:08.955Z,96.82
2022-08-03T01:22:58.937Z,96.32
2022-08-03T01:26:24.561Z,95.82
2022-08-03T01:29:25.147Z,95.53
2022-08-03T01:32:59.468Z,94.85
2022-08-03T01:34:53.309Z,94.45
2022-08-03T01:37:28.709Z,94.69
2022-08-03T01:40:02.720Z,94.07
2022-08-03T01:42:33.543Z,93.71
2022-08-03T01:45:04.152Z,93.32
2022-08-03T01:47:34.330Z,93.93
2022-08-03T01:50:04.559Z,94.19
2022-08-03T01:52:34.698Z,94.01
2022-08-03T01:55:04.932Z,94.10
2022-08-03T01:58:06.148Z,93.41
2022-08-03T02:00:27.117Z,92.54
2022-08-03T02:02:56.874Z,92.13
2022-08-03T02:05:27.776Z,91.93
2022-08-03T02:07:57.662Z,91.75
2022-08-03T02:10:35.286Z,92.30
2022-08-03T02:13:08.612Z,92.61
2022-08-03T02:15:38.923Z,93.07
2022-08-03T02:18:11.185Z,93.28
2022-08-03T02:20:41.310Z,91.37
2022-08-03T02:23:10.668Z,89.37
2022-08-03T02:25:45.391Z,88.69
2022-08-03T02:28:27.400Z,87.39
2022-08-03T02:30:57.768Z,87.09
2022-08-03T02:33:32.643Z,86.30
2022-08-03T02:36:02.913Z,84.26
2022-08-03T02:38:39.788Z,83.42
2022-08-03T02:41:14.312Z,82.93
2022-08-03T02:44:07.221Z,85.45
2022-08-03T02:46:39.357Z,84.89
2022-08-03T02:49:40.865Z,82.10
2022-08-03T02:52:01.176Z,81.27
2022-08-03T02:54:31.479Z,80.75
2022-08-03T02:57:02.295Z,79.06
2022-08-03T02:59:32.996Z,79.62
2022-08-03T03:02:03.945Z,78.56
2022-08-03T03:04:33.554Z,84.58
2022-08-03T03:07:03.728Z,85.16
2022-08-03T03:09:40.294Z,80.12
2022-08-03T03:12:11.194Z,78.66
2022-08-03T03:14:40.873Z,77.70
2022-08-03T03:17:12.030Z,73.68
2022-08-03T03:19:42.228Z,74.01
2022-08-03T03:22:11.646Z,75.45
2022-08-03T03:24:41.899Z,76.04
2022-08-03T03:27:11.126Z,71.70
2022-08-03T03:29:45.761Z,70.52
2022-08-03T03:32:15.254Z,72.54
2022-08-03T03:34:45.176Z,70.71
2022-08-03T03:37:14.761Z,67.99
2022-08-03T03:39:43.547Z,64.53
2022-08-03T03:42:12.559Z,66.95
2022-08-03T03:44:41.461Z,69.47
2022-08-03T03:47:10.283Z,69.63
2022-08-03T03:49:40.524Z,67.37
2022-08-03T03:52:09.666Z,68.25
2022-08-03T03:54:46.496Z,70.01
2022-08-03T03:57:15.328Z,71.92
2022-08-03T03:59:45.053Z,73.93
2022-08-03T04:02:14.496Z,73.90
2022-08-03T04:05:02.232Z,73.22
2022-08-03T04:08:01.888Z,71.14
2022-08-03T04:10:53.222Z,74.32
2022-08-03T04:13:23.694Z,73.22
2022-08-03T04:15:53.705Z,69.53
2022-08-03T04:18:23.207Z,66.88
2022-08-03T04:20:53.715Z,66.50
2022-08-03T04:23:26.354Z,69.33
2022-08-03T04:25:57.180Z,67.61
2022-08-03T04:28:31.406Z,67.81
2022-08-03T04:31:03.114Z,68.98
2022-08-03T04:33:37.886Z,71.62
2022-08-03T04:36:10.386Z,72.36
2022-08-03T04:39:09.202Z,72.67
2022-08-03T04:42:07.550Z,72.19
2022-08-03T04:44:31.193Z,72.39
2022-08-03T04:47:01.269Z,73.65
2022-08-03T04:49:31.443Z,71.94
2022-08-03T04:52:00.442Z,68.67
2022-08-03T04:54:29.235Z,65.57
2022-08-03T04:56:58.008Z,65.28
2022-08-03T04:59:26.900Z,63.42
2022-08-03T05:01:56.684Z,61.86
2022-08-03T05:04:26.321Z,63.29
2022-08-03T05:06:55.933Z,65.35
2022-08-03T05:09:49.900Z,66.74
2022-08-03T05:12:13.816Z,63.78
2022-08-03T05:14:42.725Z,63.01
2022-08-03T05:17:11.450Z,63.54
2022-08-03T05:19:40.240Z,63.76
2022-08-03T05:22:09.053Z,63.68
2022-08-03T05:24:37.821Z,63.34
2022-08-03T05:27:06.759Z,63.28
2022-08-03T05:29:35.501Z,61.30
2022-08-03T05:32:08.165Z,58.66
2022-08-03T05:34:37.220Z,54.57
2022-08-03T05:37:06.025Z,57.28
2022-08-03T05:39:35.089Z,60.98
2022-08-03T05:42:03.911Z,63.22
2022-08-03T05:44:32.787Z,64.11
2022-08-03T05:47:01.528Z,65.36
2022-08-03T05:49:30.301Z,64.63
2022-08-03T05:51:59.945Z,60.87
2022-08-03T05:54:56.819Z,59.44
2022-08-03T05:57:26.904Z,60.73
2022-08-03T05:59:58.385Z,60.71
2022-08-03T06:02:28.986Z,61.57
2022-08-03T06:04:58.012Z,63.05
2022-08-03T06:07:27.255Z,63.63
2022-08-03T06:10:33.638Z,63.93
2022-08-03T06:12:48.389Z,61.58
2022-08-03T06:15:17.270Z,60.09
2022-08-03T06:17:50.529Z,57.21
2022-08-03T06:20:20.693Z,54.91
2022-08-03T06:22:51.320Z,55.26
2022-08-03T06:25:29.550Z,52.91
2022-08-03T06:27:58.506Z,50.06
2022-08-03T06:30:27.485Z,48.77
2022-08-03T06:32:56.269Z,49.01
2022-08-03T06:35:25.220Z,47.50
2022-08-03T06:37:54.246Z,46.61
2022-08-03T06:40:31.897Z,49.59
2022-08-03T06:43:02.326Z,51.45
2022-08-03T06:45:32.691Z,50.57
2022-08-03T06:48:21.632Z,51.03
2022-08-03T06:50:50.405Z,46.90
2022-08-03T06:53:21.161Z,45.78
2022-08-03T06:55:54.639Z,45.71
2022-08-03T06:58:24.194Z,46.26
2022-08-03T07:00:53.806Z,46.19
2022-08-03T07:03:22.818Z,45.29
2022-08-03T07:05:51.932Z,44.72
2022-08-03T07:08:33.504Z,44.18
2022-08-03T07:11:03.193Z,46.72
2022-08-03T07:13:33.092Z,48.48
2022-08-03T07:16:01.882Z,49.95
2022-08-03T07:18:30.728Z,49.13
2022-08-03T07:20:59.764Z,50.16
2022-08-03T07:23:28.464Z,49.79
2022-08-03T07:25:57.498Z,48.59
2022-08-03T07:28:26.260Z,46.16
2022-08-03T07:30:55.052Z,46.68
2022-08-03T07:33:23.768Z,49.02
2022-08-03T07:35:52.595Z,50.77
2022-08-03T07:38:21.416Z,50.99
2022-08-03T07:40:50.226Z,52.05
2022-08-03T07:43:18.929Z,53.15
2022-08-03T07:45:47.718Z,52.64
2022-08-03T07:48:16.460Z,53.72
2022-08-03T07:50:45.308Z,54.71
2022-08-03T07:53:14.259Z,54.27
2022-08-03T07:55:43.059Z,54.50
2022-08-03T07:58:19.213Z,55.51
2022-08-03T08:00:53.721Z,56.26
2022-08-03T08:03:22.781Z,54.87
2022-08-03T08:05:51.546Z,55.21
2022-08-03T08:08:21.028Z,55.29
2022-08-03T08:10:58.288Z,55.88
2022-08-03T08:13:27.537Z,56.75
2022-08-03T08:15:56.642Z,57.66
2022-08-03T08:18:25.620Z,58.89
2022-08-03T08:20:54.400Z,59.95
2022-08-03T08:23:41.984Z,60.12
2022-08-03T08:26:12.614Z,60.73
2022-08-03T08:28:41.971Z,61.12
2022-08-03T08:31:12.357Z,60.68
2022-08-03T08:36:29.826Z,60.74
2022-08-03T08:38:58.561Z,61.27
2022-08-03T08:41:31.955Z,61.39
2022-08-03T08:44:04.419Z,61.80
2022-08-03T08:46:34.021Z,62.15
2022-08-03T08:49:05.026Z,62.14
2022-08-03T08:51:59.783Z,62.43
2022-08-03T08:54:27.735Z,62.74
2022-08-03T08:57:02.025Z,62.45
2022-08-03T08:59:48.381Z,63.43
2022-08-03T09:02:20.041Z,63.19
2022-08-03T09:04:49.486Z,62.27
2022-08-03T09:07:20.446Z,62.20
2022-08-03T09:10:10.126Z,62.47
2022-08-03T09:12:51.029Z,65.08
2022-08-03T09:15:20.744Z,61.84
2022-08-03T09:17:51.429Z,61.64
2022-08-03T09:20:22.896Z,62.02
2022-08-03T09:23:51.398Z,64.72
2022-08-03T09:26:02.231Z,61.43
2022-08-03T09:29:00.544Z,63.91
2022-08-03T09:31:42.986Z,64.91
2022-08-03T09:34:14.400Z,62.69
2022-08-03T09:36:50.817Z,63.49
2022-08-03T09:39:37.468Z,63.31
2022-08-03T09:42:18.417Z,63.31
2022-08-03T09:44:49.874Z,64.23
2022-08-03T09:47:33.054Z,66.76
2022-08-03T09:50:02.777Z,64.64
2022-08-03T09:52:49.186Z,65.18
2022-08-03T09:55:23.803Z,64.42
2022-08-03T09:58:10.985Z,64.63
2022-08-03T10:00:55.660Z,67.72
2022-08-03T10:03:26.008Z,64.94
2022-08-03T10:05:59.168Z,64.29
2022-08-03T10:08:28.645Z,65.30
2022-08-03T10:10:59.163Z,65.55
2022-08-03T10:13:28.269Z,65.14
2022-08-03T10:16:22.184Z,65.05
2022-08-03T10:18:45.764Z,65.68
2022-08-03T10:21:18.178Z,66.26
2022-08-03T10:23:48.549Z,66.34
2022-08-03T10:26:21.140Z,66.59
2022-08-03T10:28:53.017Z,66.62
2022-08-03T10:31:24.625Z,66.75
2022-08-03T10:33:57.739Z,67.15
2022-08-03T10:36:31.329Z,67.19
2022-08-03T10:39:03.583Z,67.73
2022-08-03T10:41:47.079Z,67.95
2022-08-03T10:44:21.981Z,68.22
2022-08-03T10:46:52.456Z,67.92
2022-08-03T10:49:34.882Z,67.20
2022-08-03T10:52:13.732Z,67.71
2022-08-03T10:55:13.701Z,68.15
2022-08-03T10:57:58.938Z,70.16
2022-08-03T11:00:31.022Z,68.61
2022-08-03T11:03:06.959Z,68.54
2022-08-03T11:05:39.116Z,68.43
2022-08-03T11:08:24.795Z,70.65
2022-08-03T11:10:59.603Z,68.67
2022-08-03T11:13:32.511Z,68.63
2022-08-03T11:16:07.083Z,69.04
2022-08-03T11:18:37.510Z,69.59
2022-08-03T11:21:06.424Z,69.44
2022-08-03T11:24:04.746Z,70.57
2022-08-03T11:26:33.482Z,69.40
2022-08-03T11:29:30.824Z,71.79
2022-08-03T11:31:59.828Z,69.91
2022-08-03T11:34:28.640Z,69.88
2022-08-03T11:37:21.017Z,72.17
2022-08-03T11:39:52.031Z,70.23
2022-08-03T11:42:23.999Z,70.48
2022-08-03T11:44:55.074Z,70.45
2022-08-03T11:47:27.732Z,70.40
2022-08-03T11:49:59.691Z,70.03
2022-08-03T11:52:34.606Z,69.77
2022-08-03T11:55:03.622Z,69.79
2022-08-03T11:59:01.383Z,69.86
2022-08-03T12:00:32.581Z,71.54
2022-08-03T12:03:07.676Z,70.79
2022-08-03T12:05:51.289Z,72.41
2022-08-03T12:08:35.062Z,73.35
2022-08-03T12:11:07.269Z,71.91
2022-08-03T12:14:36.708Z,72.87
2022-08-03T12:16:36.358Z,72.24
2022-08-03T12:19:07.354Z,72.28
2022-08-03T12:21:36.147Z,72.39
2022-08-03T12:24:06.165Z,72.15
2022-08-03T12:27:04.044Z,74.53
2022-08-03T12:29:32.835Z,72.25
2022-08-03T12:32:01.676Z,72.49
2022-08-03T12:34:50.114Z,74.10
2022-08-03T12:37:23.739Z,72.42
2022-08-03T12:40:09.422Z,72.56
2022-08-03T12:42:41.307Z,72.62
2022-08-03T12:45:24.387Z,73.96
2022-08-03T12:47:56.169Z,73.25
2022-08-03T12:50:31.421Z,73.37
2022-08-03T12:53:02.085Z,73.43
2022-08-03T12:55:57.785Z,73.18
2022-08-03T12:58:34.669Z,74.56
2022-08-03T13:01:10.168Z,74.41
2022-08-03T13:03:50.008Z,75.02
2022-08-03T13:06:26.114Z,75.28
2022-08-03T13:09:06.785Z,76.12
2022-08-03T13:11:55.735Z,75.70
2022-08-03T13:14:24.477Z,76.26
2022-08-03T13:16:53.270Z,76.68
2022-08-03T13:19:22.095Z,77.17
2022-08-03T13:21:53.906Z,77.30
2022-08-03T13:24:34.040Z,77.74
2022-08-03T13:28:01.130Z,77.99
2022-08-03T13:29:55.517Z,78.58
2022-08-03T13:32:24.732Z,79.00
2022-08-03T13:34:53.610Z,78.96
2022-08-03T13:37:22.771Z,79.58
2022-08-03T13:39:59.346Z,79.58
2022-08-03T13:42:31.157Z,79.66
2022-08-03T13:45:00.964Z,80.05
2022-08-03T13:47:29.893Z,80.08
2022-08-03T13:50:01.914Z,80.06
2022-08-03T13:52:34.127Z,80.21
2022-08-03T13:55:06.112Z,80.41
2022-08-03T13:58:03.345Z,80.79
2022-08-03T14:00:29.220Z,80.75
2022-08-03T14:03:13.734Z,80.79
2022-08-03T14:05:46.323Z,80.96
2022-08-03T14:08:15.039Z,80.92
2022-08-03T14:10:45.352Z,81.45
2022-08-03T14:13:17.496Z,81.55
2022-08-03T14:15:49.773Z,81.66
2022-08-03T14:18:27.609Z,81.71
2022-08-03T14:21:03.378Z,81.88
2022-08-03T14:23:35.933Z,82.00
2022-08-03T14:26:05.953Z,81.89
2022-08-03T14:28:35.232Z,82.21
2022-08-03T14:31:08.086Z,81.86
2022-08-03T14:33:44.154Z,81.99
2022-08-03T14:36:12.986Z,81.67
2022-08-03T14:38:41.814Z,81.20
2022-08-03T14:41:12.314Z,81.01
2022-08-03T14:44:00.646Z,80.60
2022-08-03T14:46:32.205Z,80.79
2022-08-03T14:50:29.094Z,80.62
2022-08-03T14:51:53.816Z,80.54
2022-08-03T14:54:23.796Z,80.27
2022-08-03T14:56:52.959Z,80.56
2022-08-03T14:59:21.892Z,80.12
2022-08-03T15:02:04.702Z,80.10
2022-08-03T15:04:35.825Z,79.98
2022-08-03T15:07:04.944Z,79.88
2022-08-03T15:09:33.914Z,79.22
2022-08-03T15:12:02.721Z,78.83
2022-08-03T15:14:33.245Z,79.10
2022-08-03T15:17:03.730Z,78.95
2022-08-03T15:20:03.859Z,78.74
2022-08-03T15:22:25.417Z,78.80
2022-08-03T15:26:03.686Z,78.82
2022-08-03T15:28:02.967Z,78.54
2022-08-03T15:30:36.618Z,78.81
2022-08-03T15:33:06.277Z,78.85
2022-08-03T15:35:35.103Z,78.75
2022-08-03T15:38:09.000Z,78.75
2022-08-03T15:40:38.378Z,78.77
2022-08-03T15:43:07.623Z,79.02
2022-08-03T15:45:37.212Z,78.69
2022-08-03T15:48:06.788Z,78.73
2022-08-03T15:50:35.597Z,79.04
2022-08-03T15:53:05.122Z,78.87
2022-08-03T15:55:34.290Z,78.89
2022-08-03T15:59:11.279Z,78.88
2022-08-03T16:00:52.354Z,78.61
2022-08-03T16:03:21.294Z,78.50
2022-08-03T16:05:50.314Z,78.74
2022-08-03T16:08:19.039Z,78.58
2022-08-03T16:10:48.714Z,78.79
2022-08-03T16:13:19.137Z,78.49
2022-08-03T16:15:48.729Z,78.05
2022-08-03T16:18:17.513Z,77.35
2022-08-03T16:20:47.006Z,77.70
2022-08-03T16:23:19.188Z,77.39
2022-08-03T16:25:49.516Z,77.29
2022-08-03T16:28:18.791Z,76.84
2022-08-03T16:30:48.044Z,77.07
2022-08-03T16:33:17.983Z,76.71
2022-08-03T16:35:47.619Z,76.58
2022-08-03T16:38:19.144Z,76.83
2022-08-03T16:40:52.416Z,76.68
2022-08-03T16:43:25.726Z,76.43
2022-08-03T16:45:54.617Z,76.68
2022-08-03T16:48:23.383Z,76.61
2022-08-03T16:50:52.184Z,76.45
2022-08-03T16:53:33.295Z,76.59
2022-08-03T16:56:11.040Z,76.81
2022-08-03T16:58:42.524Z,76.77
2022-08-03T17:01:22.553Z,76.77
2022-08-03T17:04:04.973Z,76.78
2022-08-03T17:06:45.009Z,76.83
2022-08-03T17:09:18.116Z,76.86
2022-08-03T17:11:50.705Z,76.35
2022-08-03T17:14:28.276Z,76.74
2022-08-03T17:17:02.002Z,76.63
2022-08-03T17:19:35.584Z,76.31
2022-08-03T17:22:13.012Z,76.66
2022-08-03T17:25:10.147Z,76.44
2022-08-03T17:28:51.303Z,76.45
2022-08-03T17:31:01.277Z,76.14
2022-08-03T17:33:35.595Z,76.55
2022-08-03T17:36:04.723Z,76.51
2022-08-03T17:38:36.069Z,76.24
2022-08-03T17:41:10.964Z,76.41
2022-08-03T17:44:15.331Z,76.71
2022-08-03T17:46:43.519Z,76.55
2022-08-03T17:49:23.824Z,76.56
2022-08-03T17:52:03.320Z,76.58
2022-08-03T17:55:55.632Z,76.80
2022-08-03T17:58:11.158Z,76.65
2022-08-03T18:01:04.844Z,76.63
2022-08-03T18:04:01.061Z,76.32
2022-08-03T18:06:33.479Z,76.59
2022-08-03T18:09:05.385Z,76.67
2022-08-03T18:11:58.436Z,76.52
2022-08-03T18:14:57.532Z,76.94
2022-08-03T18:17:55.696Z,76.85
2022-08-03T18:20:34.090Z,76.60
2022-08-03T18:23:25.009Z,76.97
2022-08-03T18:26:05.375Z,77.09
2022-08-03T18:28:36.838Z,77.10
2022-08-03T18:31:07.751Z,77.03
2022-08-03T18:34:16.593Z,77.12
2022-08-03T18:36:31.119Z,77.44
2022-08-03T18:39:02.415Z,77.80
2022-08-03T18:41:35.046Z,77.79
2022-08-03T18:44:07.829Z,78.08
2022-08-03T18:46:37.841Z,78.31
2022-08-03T18:49:19.845Z,78.63
2022-08-03T18:51:54.954Z,78.57
2022-08-03T18:55:02.675Z,78.56
2022-08-03T18:57:48.131Z,78.92
2022-08-03T19:00:24.287Z,78.90
2022-08-03T19:03:10.732Z,78.97
2022-08-03T19:06:04.452Z,78.96
2022-08-03T19:09:04.580Z,78.98
2022-08-03T19:12:12.797Z,79.11
2022-08-03T19:14:44.333Z,79.19
2022-08-03T19:17:14.791Z,79.25
2022-08-03T19:19:52.040Z,79.09
2022-08-03T19:22:22.675Z,79.05
2022-08-03T19:24:53.425Z,79.32
2022-08-03T19:30:32.879Z,79.34
2022-08-03T19:33:02.867Z,79.31
2022-08-03T19:35:51.410Z,79.46
2022-08-03T19:38:28.641Z,79.52
2022-08-03T19:41:02.205Z,79.29
2022-08-03T19:43:53.013Z,79.52
2022-08-03T19:46:30.618Z,79.62
2022-08-03T19:49:15.264Z,79.72
2022-08-03T19:52:00.723Z,79.86
2022-08-03T19:54:54.038Z,79.96
2022-08-03T19:57:43.567Z,79.76
2022-08-03T20:00:16.244Z,80.25
2022-08-03T20:02:45.929Z,80.12
2022-08-03T20:05:15.933Z,79.83
2022-08-03T20:07:48.336Z,79.90
2022-08-03T20:10:18.587Z,80.03
2022-08-03T20:12:49.284Z,80.03
2022-08-03T20:15:22.443Z,80.32
2022-08-03T20:18:01.196Z,80.40
2022-08-03T20:20:36.004Z,80.30
2022-08-03T20:23:10.935Z,80.36
2022-08-03T20:25:55.692Z,80.38
2022-08-03T20:28:36.011Z,80.38
2022-08-03T20:31:25.204Z,80.39
2022-08-03T20:34:01.829Z,80.28
2022-08-03T20:36:30.568Z,80.60
2022-08-03T20:38:59.649Z,80.72
2022-08-03T20:41:28.622Z,80.62
2022-08-03T20:44:01.446Z,80.57
2022-08-03T20:46:46.466Z,80.60
2022-08-03T20:49:23.293Z,80.63
2022-08-03T20:51:53.613Z,80.74
2022-08-03T20:54:31.102Z,80.49
2022-08-03T20:57:03.832Z,80.34
2022-08-03T20:59:50.675Z,80.52
2022-08-03T21:02:29.587Z,80.22
2022-08-03T21:05:08.529Z,79.75
2022-08-03T21:08:03.805Z,79.77
2022-08-03T21:10:33.140Z,79.85
2022-08-03T21:13:02.204Z,79.39
2022-08-03T21:13:47.120Z,79.66
2022-08-03T21:16:17.472Z,79.34
2022-08-03T21:18:50.469Z,79.31
2022-08-03T21:21:23.728Z,79.54
2022-08-03T21:23:55.650Z,79.68
2022-08-03T21:26:26.637Z,79.36
2022-08-03T21:28:57.341Z,79.51
2022-08-03T21:31:26.993Z,79.61
2022-08-03T21:33:58.409Z,79.29
2022-08-03T21:36:29.306Z,78.92
2022-08-03T21:38:59.584Z,79.05
2022-08-03T21:41:31.874Z,78.78
2022-08-03T21:44:01.971Z,78.59
2022-08-03T21:46:39.777Z,78.80
2022-08-03T21:50:05.608Z,78.68
2022-08-03T21:52:03.694Z,78.58
2022-08-03T21:54:41.606Z,78.37
2022-08-03T21:57:20.169Z,78.50
2022-08-03T21:59:57.658Z,78.40
2022-08-03T22:02:32.383Z,78.21
2022-08-03T22:05:04.764Z,78.33
2022-08-03T22:07:35.308Z,78.05
2022-08-03T22:10:07.290Z,78.04
2022-08-03T22:12:36.578Z,77.75
2022-08-03T22:15:08.816Z,78.00
2022-08-03T22:17:54.687Z,77.86
2022-08-03T22:20:26.027Z,77.71
2022-08-03T22:22:57.379Z,77.72
2022-08-03T22:25:35.452Z,77.78
2022-08-03T22:28:08.468Z,77.57
2022-08-03T22:30:38.511Z,77.54
2022-08-03T22:33:10.955Z,77.79
2022-08-03T22:35:47.865Z,77.83
2022-08-03T22:38:20.074Z,77.13
2022-08-03T22:40:53.181Z,77.35
2022-08-03T22:43:26.247Z,77.00
2022-08-03T22:46:09.953Z,77.05
2022-08-03T22:48:42.262Z,76.84
2022-08-03T22:51:11.658Z,76.68
2022-08-03T22:53:41.249Z,76.59
2022-08-03T22:56:10.744Z,76.73
2022-08-03T22:58:39.496Z,76.57
2022-08-03T23:01:10.795Z,76.16
2022-08-03T23:03:59.782Z,76.18
2022-08-03T23:06:36.152Z,76.42
2022-08-03T23:09:07.782Z,75.94
2022-08-03T23:11:45.737Z,76.07
2022-08-03T23:14:17.783Z,75.74
2022-08-03T23:16:48.014Z,75.74
2022-08-03T23:19:24.978Z,75.60
2022-08-03T23:22:02.456Z,75.45
2022-08-03T23:24:40.475Z,75.25
2022-08-03T23:27:10.177Z,75.04
2022-08-03T23:29:42.893Z,75.13
2022-08-03T23:32:13.696Z,75.13
2022-08-03T23:35:04.169Z,75.01
2022-08-03T23:37:33.915Z,74.81
2022-08-03T23:40:30.081Z,74.27
2022-08-03T23:43:00.116Z,74.19
2022-08-03T23:45:29.742Z,73.94
2022-08-03T23:47:58.575Z,73.85
2022-08-03T23:50:30.799Z,73.71
2022-08-03T23:53:23.215Z,73.63
2022-08-03T23:56:16.062Z,73.69
2022-08-03T23:58:58.693Z,73.24
